sensor_id;sensor_type;location;lat;lon;timestamp;P1;durP1;ratioP1;P2;durP2;ratioP2
14209;SDS011;7188;56.070;12.698;2022-08-19T00:01:21;16.55;;;15.05;;
14209;SDS011;7188;56.070;12.698;2022-08-19T00:03:47;15.63;;;14.23;;
14209;SDS011;7188;56.070;12.698;2022-08-19T00:06:13;16.00;;;14.65;;
14209;SDS011;7188;56.070;12.698;2022-08-19T00:08:39;19.08;;;17.10;;
14209;SDS011;7188;56.070;12.698;2022-08-19T00:11:05;18.50;;;16.55;;
14209;SDS011;7188;56.070;12.698;2022-08-19T00:13:32;17.85;;;16.00;;
14209;SDS011;7188;56.070;12.698;2022-08-19T00:15:58;17.58;;;15.90;;
14209;SDS011;7188;56.070;12.698;2022-08-19T00:18:24;17.20;;;15.60;;
14209;SDS011;7188;56.070;12.698;2022-08-19T00:20:50;17.50;;;16.05;;
14209;SDS011;7188;56.070;12.698;2022-08-19T00:23:17;17.70;;;15.93;;
14209;SDS011;7188;56.070;12.698;2022-08-19T00:25:43;21.25;;;16.33;;
14209;SDS011;7188;56.070;12.698;2022-08-19T00:28:08;18.85;;;16.88;;
14209;SDS011;7188;56.070;12.698;2022-08-19T00:30:34;18.52;;;16.70;;
14209;SDS011;7188;56.070;12.698;2022-08-19T00:33:00;18.73;;;17.02;;
14209;SDS011;7188;56.070;12.698;2022-08-19T00:35:25;20.77;;;18.65;;
14209;SDS011;7188;56.070;12.698;2022-08-19T00:37:52;18.15;;;16.67;;
14209;SDS011;7188;56.070;12.698;2022-08-19T00:40:18;21.25;;;19.23;;
14209;SDS011;7188;56.070;12.698;2022-08-19T00:42:44;21.38;;;19.45;;
14209;SDS011;7188;56.070;12.698;2022-08-19T00:45:18;21.88;;;19.83;;
14209;SDS011;7188;56.070;12.698;2022-08-19T00:47:47;21.80;;;19.70;;
14209;SDS011;7188;56.070;12.698;2022-08-19T00:50:14;20.65;;;18.67;;
14209;SDS011;7188;56.070;12.698;2022-08-19T00:52:43;20.23;;;18.25;;
14209;SDS011;7188;56.070;12.698;2022-08-19T00:55:14;21.08;;;19.13;;
14209;SDS011;7188;56.070;12.698;2022-08-19T00:57:44;20.05;;;18.17;;
14209;SDS011;7188;56.070;12.698;2022-08-19T01:00:22;19.63;;;17.67;;
14209;SDS011;7188;56.070;12.698;2022-08-19T01:02:49;19.35;;;17.55;;
14209;SDS011;7188;56.070;12.698;2022-08-19T01:05:16;21.50;;;19.50;;
14209;SDS011;7188;56.070;12.698;2022-08-19T01:07:46;20.05;;;18.13;;
14209;SDS011;7188;56.070;12.698;2022-08-19T01:10:14;20.38;;;18.38;;
14209;SDS011;7188;56.070;12.698;2022-08-19T01:12:43;20.15;;;18.35;;
14209;SDS011;7188;56.070;12.698;2022-08-19T01:15:11;22.38;;;20.08;;
14209;SDS011;7188;56.070;12.698;2022-08-19T01:17:39;23.17;;;20.55;;
14209;SDS011;7188;56.070;12.698;2022-08-19T01:20:08;22.75;;;20.75;;
14209;SDS011;7188;56.070;12.698;2022-08-19T01:22:43;19.70;;;17.95;;
14209;SDS011;7188;56.070;12.698;2022-08-19T01:25:15;19.70;;;17.42;;
14209;SDS011;7188;56.070;12.698;2022-08-19T01:27:44;17.55;;;15.95;;
14209;SDS011;7188;56.070;12.698;2022-08-19T01:30:17;21.02;;;18.88;;
14209;SDS011;7188;56.070;12.698;2022-08-19T01:32:46;19.73;;;17.95;;
14209;SDS011;7188;56.070;12.698;2022-08-19T01:35:22;22.10;;;19.77;;
14209;SDS011;7188;56.070;12.698;2022-08-19T01:40:20;18.42;;;16.77;;
14209;SDS011;7188;56.070;12.698;2022-08-19T01:42:50;19.65;;;17.83;;
14209;SDS011;7188;56.070;12.698;2022-08-19T01:45:18;24.45;;;21.33;;
14209;SDS011;7188;56.070;12.698;2022-08-19T01:47:47;23.80;;;21.50;;
14209;SDS011;7188;56.070;12.698;2022-08-19T01:50:13;22.23;;;20.27;;
14209;SDS011;7188;56.070;12.698;2022-08-19T01:52:40;20.87;;;18.97;;
14209;SDS011;7188;56.070;12.698;2022-08-19T01:55:09;19.45;;;17.55;;
14209;SDS011;7188;56.070;12.698;2022-08-19T01:57:37;20.23;;;18.33;;
14209;SDS011;7188;56.070;12.698;2022-08-19T02:00:07;17.23;;;15.70;;
14209;SDS011;7188;56.070;12.698;2022-08-19T02:02:37;18.55;;;16.83;;
14209;SDS011;7188;56.070;12.698;2022-08-19T02:05:03;17.88;;;16.42;;
14209;SDS011;7188;56.070;12.698;2022-08-19T02:07:29;20.17;;;18.15;;
14209;SDS011;7188;56.070;12.698;2022-08-19T02:09:55;19.58;;;17.88;;
14209;SDS011;7188;56.070;12.698;2022-08-19T02:12:21;22.52;;;20.52;;
14209;SDS011;7188;56.070;12.698;2022-08-19T02:14:47;20.83;;;18.85;;
14209;SDS011;7188;56.070;12.698;2022-08-19T02:17:12;18.48;;;16.60;;
14209;SDS011;7188;56.070;12.698;2022-08-19T02:19:38;21.40;;;19.52;;
14209;SDS011;7188;56.070;12.698;2022-08-19T02:22:04;20.70;;;18.70;;
14209;SDS011;7188;56.070;12.698;2022-08-19T02:24:30;17.25;;;15.82;;
14209;SDS011;7188;56.070;12.698;2022-08-19T02:26:56;17.75;;;15.93;;
14209;SDS011;7188;56.070;12.698;2022-08-19T02:29:23;16.80;;;15.32;;
14209;SDS011;7188;56.070;12.698;2022-08-19T02:31:49;17.40;;;15.87;;
14209;SDS011;7188;56.070;12.698;2022-08-19T02:34:15;16.38;;;14.93;;
14209;SDS011;7188;56.070;12.698;2022-08-19T02:36:41;17.25;;;15.65;;
14209;SDS011;7188;56.070;12.698;2022-08-19T02:39:07;18.77;;;17.17;;
14209;SDS011;7188;56.070;12.698;2022-08-19T02:41:33;16.48;;;14.95;;
14209;SDS011;7188;56.070;12.698;2022-08-19T02:44:00;18.17;;;16.63;;
14209;SDS011;7188;56.070;12.698;2022-08-19T02:46:28;18.95;;;17.08;;
14209;SDS011;7188;56.070;12.698;2022-08-19T02:48:56;16.45;;;14.98;;
14209;SDS011;7188;56.070;12.698;2022-08-19T02:51:25;15.98;;;14.68;;
14209;SDS011;7188;56.070;12.698;2022-08-19T02:53:55;17.30;;;15.80;;
14209;SDS011;7188;56.070;12.698;2022-08-19T02:56:22;15.85;;;14.48;;
14209;SDS011;7188;56.070;12.698;2022-08-19T02:58:49;15.57;;;14.18;;
14209;SDS011;7188;56.070;12.698;2022-08-19T03:03:49;15.23;;;14.02;;
14209;SDS011;7188;56.070;12.698;2022-08-19T03:06:16;15.95;;;14.55;;
14209;SDS011;7188;56.070;12.698;2022-08-19T03:08:43;16.92;;;15.43;;
14209;SDS011;7188;56.070;12.698;2022-08-19T03:11:14;14.73;;;13.50;;
14209;SDS011;7188;56.070;12.698;2022-08-19T03:13:45;15.98;;;14.68;;
14209;SDS011;7188;56.070;12.698;2022-08-19T03:16:14;16.05;;;14.55;;
14209;SDS011;7188;56.070;12.698;2022-08-19T03:18:41;16.33;;;14.93;;
14209;SDS011;7188;56.070;12.698;2022-08-19T03:21:07;16.27;;;14.68;;
14209;SDS011;7188;56.070;12.698;2022-08-19T03:23:33;15.25;;;13.75;;
14209;SDS011;7188;56.070;12.698;2022-08-19T03:26:01;14.35;;;13.05;;
14209;SDS011;7188;56.070;12.698;2022-08-19T03:28:29;14.57;;;13.18;;
14209;SDS011;7188;56.070;12.698;2022-08-19T03:31:04;13.75;;;12.65;;
14209;SDS011;7188;56.070;12.698;2022-08-19T03:33:33;14.35;;;13.15;;
14209;SDS011;7188;56.070;12.698;2022-08-19T03:36:00;15.57;;;14.27;;
14209;SDS011;7188;56.070;12.698;2022-08-19T03:38:33;17.65;;;16.10;;
14209;SDS011;7188;56.070;12.698;2022-08-19T03:41:05;14.65;;;13.32;;
14209;SDS011;7188;56.070;12.698;2022-08-19T03:43:34;17.13;;;15.57;;
14209;SDS011;7188;56.070;12.698;2022-08-19T03:46:06;18.58;;;16.98;;
14209;SDS011;7188;56.070;12.698;2022-08-19T03:48:36;21.55;;;19.60;;
14209;SDS011;7188;56.070;12.698;2022-08-19T03:51:03;16.50;;;15.03;;
14209;SDS011;7188;56.070;12.698;2022-08-19T03:53:30;17.00;;;15.57;;
14209;SDS011;7188;56.070;12.698;2022-08-19T03:55:57;15.23;;;13.87;;
14209;SDS011;7188;56.070;12.698;2022-08-19T03:58:28;14.70;;;13.35;;
14209;SDS011;7188;56.070;12.698;2022-08-19T04:00:57;15.57;;;14.30;;
14209;SDS011;7188;56.070;12.698;2022-08-19T04:03:23;16.25;;;14.75;;
14209;SDS011;7188;56.070;12.698;2022-08-19T04:05:51;16.83;;;15.18;;
14209;SDS011;7188;56.070;12.698;2022-08-19T04:08:18;15.10;;;13.77;;
14209;SDS011;7188;56.070;12.698;2022-08-19T04:10:45;18.52;;;16.88;;
14209;SDS011;7188;56.070;12.698;2022-08-19T04:13:17;17.85;;;16.33;;
14209;SDS011;7188;56.070;12.698;2022-08-19T04:15:44;15.88;;;14.55;;
14209;SDS011;7188;56.070;12.698;2022-08-19T04:18:11;16.88;;;15.20;;
14209;SDS011;7188;56.070;12.698;2022-08-19T04:20:44;20.95;;;18.85;;
14209;SDS011;7188;56.070;12.698;2022-08-19T04:23:12;17.45;;;15.75;;
14209;SDS011;7188;56.070;12.698;2022-08-19T04:25:42;20.67;;;18.40;;
14209;SDS011;7188;56.070;12.698;2022-08-19T04:28:09;16.77;;;15.27;;
14209;SDS011;7188;56.070;12.698;2022-08-19T04:30:37;18.17;;;16.38;;
14209;SDS011;7188;56.070;12.698;2022-08-19T04:33:04;18.77;;;16.88;;
14209;SDS011;7188;56.070;12.698;2022-08-19T04:35:34;17.25;;;15.63;;
14209;SDS011;7188;56.070;12.698;2022-08-19T04:38:05;19.88;;;17.95;;
14209;SDS011;7188;56.070;12.698;2022-08-19T04:40:31;19.45;;;17.75;;
14209;SDS011;7188;56.070;12.698;2022-08-19T04:43:15;17.27;;;15.88;;
14209;SDS011;7188;56.070;12.698;2022-08-19T04:45:44;18.42;;;16.90;;
14209;SDS011;7188;56.070;12.698;2022-08-19T04:48:10;20.27;;;18.50;;
14209;SDS011;7188;56.070;12.698;2022-08-19T04:50:39;19.85;;;17.88;;
14209;SDS011;7188;56.070;12.698;2022-08-19T04:53:06;18.98;;;17.27;;
14209;SDS011;7188;56.070;12.698;2022-08-19T04:55:32;21.63;;;19.67;;
14209;SDS011;7188;56.070;12.698;2022-08-19T04:58:00;22.15;;;19.88;;
14209;SDS011;7188;56.070;12.698;2022-08-19T05:00:27;22.00;;;20.00;;
14209;SDS011;7188;56.070;12.698;2022-08-19T05:02:53;24.30;;;21.95;;
14209;SDS011;7188;56.070;12.698;2022-08-19T05:05:18;24.83;;;22.50;;
14209;SDS011;7188;56.070;12.698;2022-08-19T05:07:44;27.63;;;25.02;;
14209;SDS011;7188;56.070;12.698;2022-08-19T05:10:10;27.70;;;25.02;;
14209;SDS011;7188;56.070;12.698;2022-08-19T05:12:36;28.38;;;25.65;;
14209;SDS011;7188;56.070;12.698;2022-08-19T05:15:03;27.80;;;25.15;;
14209;SDS011;7188;56.070;12.698;2022-08-19T05:17:30;27.40;;;24.65;;
14209;SDS011;7188;56.070;12.698;2022-08-19T05:19:56;25.65;;;23.25;;
14209;SDS011;7188;56.070;12.698;2022-08-19T05:22:41;28.40;;;25.58;;
14209;SDS011;7188;56.070;12.698;2022-08-19T05:25:13;26.10;;;23.05;;
14209;SDS011;7188;56.070;12.698;2022-08-19T05:27:44;26.45;;;23.88;;
14209;SDS011;7188;56.070;12.698;2022-08-19T05:30:10;26.85;;;23.95;;
14209;SDS011;7188;56.070;12.698;2022-08-19T05:32:38;27.00;;;24.35;;
14209;SDS011;7188;56.070;12.698;2022-08-19T05:35:04;25.23;;;23.00;;
14209;SDS011;7188;56.070;12.698;2022-08-19T05:37:31;26.48;;;23.65;;
14209;SDS011;7188;56.070;12.698;2022-08-19T05:39:56;24.70;;;22.42;;
14209;SDS011;7188;56.070;12.698;2022-08-19T05:42:22;23.40;;;21.15;;
14209;SDS011;7188;56.070;12.698;2022-08-19T05:44:48;25.10;;;22.63;;
14209;SDS011;7188;56.070;12.698;2022-08-19T05:47:14;25.88;;;23.45;;
14209;SDS011;7188;56.070;12.698;2022-08-19T05:49:41;25.50;;;22.90;;
14209;SDS011;7188;56.070;12.698;2022-08-19T05:52:08;22.85;;;20.85;;
14209;SDS011;7188;56.070;12.698;2022-08-19T05:54:39;26.33;;;23.85;;
14209;SDS011;7188;56.070;12.698;2022-08-19T05:57:06;25.17;;;22.75;;
14209;SDS011;7188;56.070;12.698;2022-08-19T05:59:33;24.77;;;22.17;;
14209;SDS011;7188;56.070;12.698;2022-08-19T06:02:00;22.80;;;20.42;;
14209;SDS011;7188;56.070;12.698;2022-08-19T06:04:26;22.67;;;20.42;;
14209;SDS011;7188;56.070;12.698;2022-08-19T06:06:52;23.02;;;20.95;;
14209;SDS011;7188;56.070;12.698;2022-08-19T06:09:19;23.67;;;21.23;;
14209;SDS011;7188;56.070;12.698;2022-08-19T06:11:47;23.05;;;20.75;;
14209;SDS011;7188;56.070;12.698;2022-08-19T06:14:21;23.48;;;21.10;;
14209;SDS011;7188;56.070;12.698;2022-08-19T06:16:49;23.38;;;21.23;;
14209;SDS011;7188;56.070;12.698;2022-08-19T06:19:17;24.13;;;21.83;;
14209;SDS011;7188;56.070;12.698;2022-08-19T06:21:45;23.80;;;21.30;;
14209;SDS011;7188;56.070;12.698;2022-08-19T06:24:14;23.10;;;20.88;;
14209;SDS011;7188;56.070;12.698;2022-08-19T06:26:41;23.65;;;21.55;;
14209;SDS011;7188;56.070;12.698;2022-08-19T06:29:09;24.95;;;22.55;;
14209;SDS011;7188;56.070;12.698;2022-08-19T06:31:36;24.10;;;22.00;;
14209;SDS011;7188;56.070;12.698;2022-08-19T06:34:04;26.60;;;24.20;;
14209;SDS011;7188;56.070;12.698;2022-08-19T06:36:31;26.17;;;23.70;;
14209;SDS011;7188;56.070;12.698;2022-08-19T06:39:06;25.17;;;22.83;;
14209;SDS011;7188;56.070;12.698;2022-08-19T06:41:35;26.33;;;23.73;;
14209;SDS011;7188;56.070;12.698;2022-08-19T06:44:04;21.63;;;19.42;;
14209;SDS011;7188;56.070;12.698;2022-08-19T06:46:30;22.30;;;19.83;;
14209;SDS011;7188;56.070;12.698;2022-08-19T06:48:56;21.92;;;19.25;;
14209;SDS011;7188;56.070;12.698;2022-08-19T06:51:22;20.35;;;17.75;;
14209;SDS011;7188;56.070;12.698;2022-08-19T06:53:50;20.83;;;18.20;;
14209;SDS011;7188;56.070;12.698;2022-08-19T06:56:20;21.60;;;19.52;;
14209;SDS011;7188;56.070;12.698;2022-08-19T06:58:56;23.05;;;19.23;;
14209;SDS011;7188;56.070;12.698;2022-08-19T07:01:21;22.10;;;18.23;;
14209;SDS011;7188;56.070;12.698;2022-08-19T07:03:47;22.27;;;17.35;;
14209;SDS011;7188;56.070;12.698;2022-08-19T07:06:14;20.45;;;17.83;;
14209;SDS011;7188;56.070;12.698;2022-08-19T07:08:43;21.42;;;17.70;;
14209;SDS011;7188;56.070;12.698;2022-08-19T07:11:10;22.23;;;19.88;;
14209;SDS011;7188;56.070;12.698;2022-08-19T07:13:38;21.30;;;19.10;;
14209;SDS011;7188;56.070;12.698;2022-08-19T07:16:09;20.67;;;18.73;;
14209;SDS011;7188;56.070;12.698;2022-08-19T07:18:36;20.90;;;18.83;;
14209;SDS011;7188;56.070;12.698;2022-08-19T07:21:10;21.15;;;19.23;;
14209;SDS011;7188;56.070;12.698;2022-08-19T07:23:40;20.23;;;18.20;;
14209;SDS011;7188;56.070;12.698;2022-08-19T07:26:07;19.88;;;18.05;;
14209;SDS011;7188;56.070;12.698;2022-08-19T07:28:39;20.85;;;18.65;;
14209;SDS011;7188;56.070;12.698;2022-08-19T07:31:06;21.67;;;19.45;;
14209;SDS011;7188;56.070;12.698;2022-08-19T07:33:32;21.67;;;19.73;;
14209;SDS011;7188;56.070;12.698;2022-08-19T07:38:57;22.52;;;20.02;;
14209;SDS011;7188;56.070;12.698;2022-08-19T07:41:25;21.70;;;18.67;;
14209;SDS011;7188;56.070;12.698;2022-08-19T07:43:53;22.67;;;19.88;;
14209;SDS011;7188;56.070;12.698;2022-08-19T07:46:19;20.23;;;18.08;;
14209;SDS011;7188;56.070;12.698;2022-08-19T07:48:46;19.70;;;17.58;;
14209;SDS011;7188;56.070;12.698;2022-08-19T07:51:15;21.27;;;19.17;;
14209;SDS011;7188;56.070;12.698;2022-08-19T07:53:43;23.27;;;19.85;;
14209;SDS011;7188;56.070;12.698;2022-08-19T07:56:10;20.58;;;16.90;;
14209;SDS011;7188;56.070;12.698;2022-08-19T07:58:39;23.58;;;18.25;;
14209;SDS011;7188;56.070;12.698;2022-08-19T08:01:07;21.42;;;19.42;;
14209;SDS011;7188;56.070;12.698;2022-08-19T08:03:36;20.27;;;18.35;;
14209;SDS011;7188;56.070;12.698;2022-08-19T08:06:20;18.23;;;16.63;;
14209;SDS011;7188;56.070;12.698;2022-08-19T08:09:05;18.05;;;16.17;;
14209;SDS011;7188;56.070;12.698;2022-08-19T08:12:03;19.15;;;17.27;;
14209;SDS011;7188;56.070;12.698;2022-08-19T08:14:34;19.63;;;17.77;;
14209;SDS011;7188;56.070;12.698;2022-08-19T08:17:04;20.05;;;18.02;;
14209;SDS011;7188;56.070;12.698;2022-08-19T08:19:31;20.25;;;18.35;;
14209;SDS011;7188;56.070;12.698;2022-08-19T08:21:58;19.60;;;17.63;;
14209;SDS011;7188;56.070;12.698;2022-08-19T08:24:25;17.85;;;16.33;;
14209;SDS011;7188;56.070;12.698;2022-08-19T08:26:52;17.85;;;16.38;;
14209;SDS011;7188;56.070;12.698;2022-08-19T08:29:18;19.48;;;17.63;;
14209;SDS011;7188;56.070;12.698;2022-08-19T08:31:44;16.77;;;15.23;;
14209;SDS011;7188;56.070;12.698;2022-08-19T08:34:10;16.83;;;15.18;;
14209;SDS011;7188;56.070;12.698;2022-08-19T08:36:37;17.75;;;16.05;;
14209;SDS011;7188;56.070;12.698;2022-08-19T08:39:10;15.27;;;14.02;;
14209;SDS011;7188;56.070;12.698;2022-08-19T08:47:02;14.13;;;12.82;;
14209;SDS011;7188;56.070;12.698;2022-08-19T08:49:48;13.27;;;12.02;;
14209;SDS011;7188;56.070;12.698;2022-08-19T08:52:24;14.15;;;12.80;;
14209;SDS011;7188;56.070;12.698;2022-08-19T08:54:55;13.77;;;12.50;;
14209;SDS011;7188;56.070;12.698;2022-08-19T08:59:48;15.60;;;14.20;;
14209;SDS011;7188;56.070;12.698;2022-08-19T09:02:17;14.90;;;13.35;;
14209;SDS011;7188;56.070;12.698;2022-08-19T09:04:43;14.88;;;13.55;;
14209;SDS011;7188;56.070;12.698;2022-08-19T09:09:45;14.63;;;13.05;;
14209;SDS011;7188;56.070;12.698;2022-08-19T09:14:55;13.77;;;12.70;;
14209;SDS011;7188;56.070;12.698;2022-08-19T09:17:26;14.60;;;13.30;;
14209;SDS011;7188;56.070;12.698;2022-08-19T09:19:57;15.93;;;13.70;;
14209;SDS011;7188;56.070;12.698;2022-08-19T09:22:41;15.65;;;14.32;;
14209;SDS011;7188;56.070;12.698;2022-08-19T09:25:09;13.02;;;11.93;;
14209;SDS011;7188;56.070;12.698;2022-08-19T09:27:37;15.00;;;13.23;;
14209;SDS011;7188;56.070;12.698;2022-08-19T09:30:05;15.75;;;14.45;;
14209;SDS011;7188;56.070;12.698;2022-08-19T09:32:32;14.45;;;13.15;;
14209;SDS011;7188;56.070;12.698;2022-08-19T09:34:58;14.40;;;12.98;;
14209;SDS011;7188;56.070;12.698;2022-08-19T09:37:25;15.45;;;13.80;;
14209;SDS011;7188;56.070;12.698;2022-08-19T09:39:51;15.77;;;14.32;;
14209;SDS011;7188;56.070;12.698;2022-08-19T09:42:17;15.85;;;14.32;;
14209;SDS011;7188;56.070;12.698;2022-08-19T09:44:43;15.25;;;13.95;;
14209;SDS011;7188;56.070;12.698;2022-08-19T09:47:10;16.55;;;15.15;;
14209;SDS011;7188;56.070;12.698;2022-08-19T09:49:37;15.93;;;13.57;;
14209;SDS011;7188;56.070;12.698;2022-08-19T09:52:04;15.70;;;14.30;;
14209;SDS011;7188;56.070;12.698;2022-08-19T09:54:31;15.55;;;13.80;;
14209;SDS011;7188;56.070;12.698;2022-08-19T09:57:00;15.20;;;13.73;;
14209;SDS011;7188;56.070;12.698;2022-08-19T09:59:26;15.93;;;14.52;;
14209;SDS011;7188;56.070;12.698;2022-08-19T10:01:53;13.93;;;12.75;;
14209;SDS011;7188;56.070;12.698;2022-08-19T10:04:19;16.67;;;15.23;;
14209;SDS011;7188;56.070;12.698;2022-08-19T10:06:46;16.45;;;14.80;;
14209;SDS011;7188;56.070;12.698;2022-08-19T10:09:13;18.63;;;15.48;;
14209;SDS011;7188;56.070;12.698;2022-08-19T10:11:42;16.35;;;14.90;;
14209;SDS011;7188;56.070;12.698;2022-08-19T10:14:11;17.85;;;15.63;;
14209;SDS011;7188;56.070;12.698;2022-08-19T10:16:37;14.90;;;13.45;;
14209;SDS011;7188;56.070;12.698;2022-08-19T10:19:04;15.27;;;14.07;;
14209;SDS011;7188;56.070;12.698;2022-08-19T10:21:30;14.52;;;13.32;;
14209;SDS011;7188;56.070;12.698;2022-08-19T10:23:59;14.52;;;13.25;;
14209;SDS011;7188;56.070;12.698;2022-08-19T10:26:29;14.77;;;13.57;;
14209;SDS011;7188;56.070;12.698;2022-08-19T10:28:57;14.23;;;12.88;;
14209;SDS011;7188;56.070;12.698;2022-08-19T10:31:24;14.50;;;13.27;;
14209;SDS011;7188;56.070;12.698;2022-08-19T10:33:54;13.82;;;12.73;;
14209;SDS011;7188;56.070;12.698;2022-08-19T10:36:31;15.05;;;13.75;;
14209;SDS011;7188;56.070;12.698;2022-08-19T10:39:00;18.30;;;16.30;;
14209;SDS011;7188;56.070;12.698;2022-08-19T10:41:31;19.25;;;17.55;;
14209;SDS011;7188;56.070;12.698;2022-08-19T10:44:00;16.83;;;15.35;;
14209;SDS011;7188;56.070;12.698;2022-08-19T10:46:31;16.67;;;15.27;;
14209;SDS011;7188;56.070;12.698;2022-08-19T10:49:02;17.63;;;15.82;;
14209;SDS011;7188;56.070;12.698;2022-08-19T10:51:30;18.35;;;16.65;;
14209;SDS011;7188;56.070;12.698;2022-08-19T10:54:14;17.30;;;15.70;;
14209;SDS011;7188;56.070;12.698;2022-08-19T10:56:41;17.02;;;15.40;;
14209;SDS011;7188;56.070;12.698;2022-08-19T10:59:16;18.30;;;16.50;;
14209;SDS011;7188;56.070;12.698;2022-08-19T11:01:46;19.27;;;17.52;;
14209;SDS011;7188;56.070;12.698;2022-08-19T11:04:13;16.85;;;15.40;;
14209;SDS011;7188;56.070;12.698;2022-08-19T11:06:42;15.60;;;14.30;;
14209;SDS011;7188;56.070;12.698;2022-08-19T11:09:10;17.02;;;15.60;;
14209;SDS011;7188;56.070;12.698;2022-08-19T11:11:36;15.50;;;14.07;;
14209;SDS011;7188;56.070;12.698;2022-08-19T11:14:10;15.25;;;13.90;;
14209;SDS011;7188;56.070;12.698;2022-08-19T11:16:37;15.60;;;14.23;;
14209;SDS011;7188;56.070;12.698;2022-08-19T11:19:05;15.60;;;13.63;;
14209;SDS011;7188;56.070;12.698;2022-08-19T11:21:34;15.73;;;13.20;;
14209;SDS011;7188;56.070;12.698;2022-08-19T11:24:04;15.02;;;13.38;;
14209;SDS011;7188;56.070;12.698;2022-08-19T11:26:41;14.45;;;13.25;;
14209;SDS011;7188;56.070;12.698;2022-08-19T11:29:10;13.68;;;12.57;;
14209;SDS011;7188;56.070;12.698;2022-08-19T11:31:38;14.30;;;13.10;;
14209;SDS011;7188;56.070;12.698;2022-08-19T11:34:09;13.45;;;12.35;;
14209;SDS011;7188;56.070;12.698;2022-08-19T11:36:38;13.07;;;11.95;;
14209;SDS011;7188;56.070;12.698;2022-08-19T11:39:06;13.27;;;11.90;;
14209;SDS011;7188;56.070;12.698;2022-08-19T11:41:33;15.13;;;13.95;;
14209;SDS011;7188;56.070;12.698;2022-08-19T11:43:59;14.45;;;13.13;;
14209;SDS011;7188;56.070;12.698;2022-08-19T11:46:25;14.27;;;12.88;;
14209;SDS011;7188;56.070;12.698;2022-08-19T11:48:58;13.32;;;11.90;;
14209;SDS011;7188;56.070;12.698;2022-08-19T11:51:26;12.90;;;11.65;;
14209;SDS011;7188;56.070;12.698;2022-08-19T11:53:53;12.98;;;11.75;;
14209;SDS011;7188;56.070;12.698;2022-08-19T11:56:21;14.85;;;13.27;;
14209;SDS011;7188;56.070;12.698;2022-08-19T11:58:49;12.93;;;11.63;;
14209;SDS011;7188;56.070;12.698;2022-08-19T12:01:26;13.73;;;12.32;;
14209;SDS011;7188;56.070;12.698;2022-08-19T12:03:53;12.13;;;10.90;;
14209;SDS011;7188;56.070;12.698;2022-08-19T12:06:21;11.07;;;10.07;;
14209;SDS011;7188;56.070;12.698;2022-08-19T12:08:51;12.45;;;11.20;;
14209;SDS011;7188;56.070;12.698;2022-08-19T12:11:17;11.02;;;9.68;;
14209;SDS011;7188;56.070;12.698;2022-08-19T12:13:43;11.88;;;10.63;;
14209;SDS011;7188;56.070;12.698;2022-08-19T12:16:22;10.63;;;9.65;;
14209;SDS011;7188;56.070;12.698;2022-08-19T12:18:51;11.32;;;10.23;;
14209;SDS011;7188;56.070;12.698;2022-08-19T12:21:22;12.52;;;11.43;;
14209;SDS011;7188;56.070;12.698;2022-08-19T12:23:52;11.13;;;10.02;;
14209;SDS011;7188;56.070;12.698;2022-08-19T12:26:19;10.05;;;9.23;;
14209;SDS011;7188;56.070;12.698;2022-08-19T12:28:45;10.30;;;9.32;;
14209;SDS011;7188;56.070;12.698;2022-08-19T12:31:13;9.55;;;8.75;;
14209;SDS011;7188;56.070;12.698;2022-08-19T12:33:39;10.35;;;9.55;;
14209;SDS011;7188;56.070;12.698;2022-08-19T12:36:07;15.48;;;14.07;;
14209;SDS011;7188;56.070;12.698;2022-08-19T12:38:34;14.80;;;13.60;;
14209;SDS011;7188;56.070;12.698;2022-08-19T12:41:00;16.08;;;14.65;;
14209;SDS011;7188;56.070;12.698;2022-08-19T12:43:30;17.85;;;16.35;;
14209;SDS011;7188;56.070;12.698;2022-08-19T12:45:56;18.50;;;16.60;;
14209;SDS011;7188;56.070;12.698;2022-08-19T12:48:22;17.63;;;16.02;;
14209;SDS011;7188;56.070;12.698;2022-08-19T12:50:47;19.42;;;17.42;;
14209;SDS011;7188;56.070;12.698;2022-08-19T12:53:13;17.90;;;15.95;;
14209;SDS011;7188;56.070;12.698;2022-08-19T12:55:40;19.48;;;17.58;;
14209;SDS011;7188;56.070;12.698;2022-08-19T12:58:06;17.75;;;16.35;;
14209;SDS011;7188;56.070;12.698;2022-08-19T13:00:31;17.83;;;16.02;;
14209;SDS011;7188;56.070;12.698;2022-08-19T13:02:57;18.35;;;16.60;;
14209;SDS011;7188;56.070;12.698;2022-08-19T13:05:24;17.20;;;15.50;;
14209;SDS011;7188;56.070;12.698;2022-08-19T13:07:52;20.02;;;18.13;;
14209;SDS011;7188;56.070;12.698;2022-08-19T13:10:23;21.33;;;19.08;;
14209;SDS011;7188;56.070;12.698;2022-08-19T13:12:56;21.55;;;19.40;;
14209;SDS011;7188;56.070;12.698;2022-08-19T13:15:24;19.42;;;17.55;;
14209;SDS011;7188;56.070;12.698;2022-08-19T13:21:12;20.00;;;17.63;;
14209;SDS011;7188;56.070;12.698;2022-08-19T13:23:38;20.08;;;17.98;;
14209;SDS011;7188;56.070;12.698;2022-08-19T13:26:06;19.85;;;17.95;;
14209;SDS011;7188;56.070;12.698;2022-08-19T13:28:33;21.50;;;19.55;;
14209;SDS011;7188;56.070;12.698;2022-08-19T13:31:32;21.02;;;18.95;;
14209;SDS011;7188;56.070;12.698;2022-08-19T13:34:19;23.23;;;20.83;;
14209;SDS011;7188;56.070;12.698;2022-08-19T13:36:59;21.98;;;19.88;;
14209;SDS011;7188;56.070;12.698;2022-08-19T13:39:27;20.05;;;18.10;;
14209;SDS011;7188;56.070;12.698;2022-08-19T13:41:53;21.42;;;19.33;;
14209;SDS011;7188;56.070;12.698;2022-08-19T13:44:19;19.65;;;17.73;;
14209;SDS011;7188;56.070;12.698;2022-08-19T13:46:46;19.20;;;17.38;;
14209;SDS011;7188;56.070;12.698;2022-08-19T13:49:13;17.17;;;15.60;;
14209;SDS011;7188;56.070;12.698;2022-08-19T13:51:39;18.90;;;17.00;;
14209;SDS011;7188;56.070;12.698;2022-08-19T13:54:06;21.75;;;19.70;;
14209;SDS011;7188;56.070;12.698;2022-08-19T13:56:33;22.25;;;20.08;;
14209;SDS011;7188;56.070;12.698;2022-08-19T13:59:00;24.05;;;21.85;;
14209;SDS011;7188;56.070;12.698;2022-08-19T14:01:26;23.95;;;21.45;;
14209;SDS011;7188;56.070;12.698;2022-08-19T14:03:52;27.20;;;24.60;;
14209;SDS011;7188;56.070;12.698;2022-08-19T14:06:18;25.77;;;23.15;;
14209;SDS011;7188;56.070;12.698;2022-08-19T14:08:45;26.13;;;23.48;;
14209;SDS011;7188;56.070;12.698;2022-08-19T14:11:11;25.63;;;22.90;;
14209;SDS011;7188;56.070;12.698;2022-08-19T14:13:36;28.15;;;25.08;;
14209;SDS011;7188;56.070;12.698;2022-08-19T14:16:06;27.17;;;24.40;;
14209;SDS011;7188;56.070;12.698;2022-08-19T14:18:36;26.27;;;23.52;;
14209;SDS011;7188;56.070;12.698;2022-08-19T14:21:02;28.25;;;25.40;;
14209;SDS011;7188;56.070;12.698;2022-08-19T14:23:29;26.90;;;24.20;;
14209;SDS011;7188;56.070;12.698;2022-08-19T14:26:03;26.83;;;24.13;;
14209;SDS011;7188;56.070;12.698;2022-08-19T14:28:29;25.08;;;22.75;;
14209;SDS011;7188;56.070;12.698;2022-08-19T14:30:55;26.15;;;23.60;;
14209;SDS011;7188;56.070;12.698;2022-08-19T14:33:21;29.10;;;26.30;;
14209;SDS011;7188;56.070;12.698;2022-08-19T14:35:46;26.70;;;23.90;;
14209;SDS011;7188;56.070;12.698;2022-08-19T14:38:15;28.77;;;25.73;;
14209;SDS011;7188;56.070;12.698;2022-08-19T14:40:42;30.00;;;26.85;;
14209;SDS011;7188;56.070;12.698;2022-08-19T14:43:08;25.55;;;22.95;;
14209;SDS011;7188;56.070;12.698;2022-08-19T14:45:35;26.35;;;23.55;;
14209;SDS011;7188;56.070;12.698;2022-08-19T14:48:03;30.33;;;26.98;;
14209;SDS011;7188;56.070;12.698;2022-08-19T14:50:29;27.83;;;24.83;;
14209;SDS011;7188;56.070;12.698;2022-08-19T14:53:02;27.98;;;25.13;;